createdAt,value
2022-10-11T00:00:52.790Z,0
2022-10-11T00:06:03.599Z,0
2022-10-11T00:10:51.680Z,0
2022-10-11T00:16:00.170Z,0
2022-10-11T00:21:08.639Z,0
2022-10-11T00:26:16.479Z,0
2022-10-11T00:31:26.259Z,0
2022-10-11T00:36:34.741Z,0
2022-10-11T00:41:43.196Z,0
2022-10-11T00:46:56.236Z,0
2022-10-11T00:52:01.468Z,1
2022-10-11T00:57:11.199Z,0
2022-10-11T01:02:35.681Z,0
2022-10-11T01:08:04.775Z,0
2022-10-11T01:13:14.539Z,0
2022-10-11T01:18:23.029Z,0
2022-10-11T01:23:12.160Z,0
2022-10-11T01:28:21.531Z,0
2022-10-11T01:33:29.786Z,0
2022-10-11T01:38:38.237Z,0
2022-10-11T01:43:46.084Z,0
2022-10-11T01:48:54.553Z,0
2022-10-11T01:54:03.037Z,0
2022-10-11T01:59:13.435Z,0
2022-10-11T02:04:22.552Z,0
2022-10-11T02:09:31.035Z,0
2022-10-11T02:14:40.801Z,0
2022-10-11T02:19:53.976Z,0
2022-10-11T02:25:08.216Z,0
2022-10-11T02:30:23.136Z,0
2022-10-11T02:35:37.322Z,0
2022-10-11T02:40:52.887Z,0
2022-10-11T02:46:09.840Z,0
2022-10-11T02:51:25.816Z,0
2022-10-11T02:56:41.338Z,0
2022-10-11T03:01:57.564Z,0
2022-10-11T03:07:13.873Z,0
2022-10-11T03:12:27.895Z,0
2022-10-11T03:16:54.095Z,0
2022-10-11T03:21:46.404Z,0
2022-10-11T03:27:14.840Z,0
2022-10-11T03:32:03.349Z,0
2022-10-11T03:37:32.463Z,0
2022-10-11T03:42:21.362Z,0
2022-10-11T03:47:50.697Z,0
2022-10-11T03:53:00.463Z,0
2022-10-11T03:58:10.217Z,0
2022-10-11T04:02:59.361Z,0
2022-10-11T04:08:12.646Z,0
2022-10-11T04:13:18.237Z,0
2022-10-11T04:19:15.827Z,0
2022-10-11T04:24:32.362Z,0
2022-10-11T04:29:48.750Z,0
2022-10-11T04:33:55.998Z,0
2022-10-11T04:39:05.791Z,0
2022-10-11T04:44:14.249Z,0
2022-10-11T04:49:23.365Z,0
2022-10-11T04:54:31.847Z,0
2022-10-11T04:59:40.956Z,0
2022-10-11T05:04:49.440Z,0
2022-10-11T05:09:57.921Z,0
2022-10-11T05:15:07.050Z,0
2022-10-11T05:20:15.521Z,0
2022-10-11T05:25:24.641Z,2
2022-10-11T05:30:33.751Z,6
2022-10-11T05:35:42.247Z,17
2022-10-11T05:40:51.996Z,29
2022-10-11T05:46:00.473Z,39
2022-10-11T05:51:08.977Z,49
2022-10-11T05:56:18.067Z,75
2022-10-11T06:01:27.987Z,103
2022-10-11T06:06:36.315Z,124
2022-10-11T06:11:49.007Z,149
2022-10-11T06:17:06.428Z,176
2022-10-11T06:22:22.590Z,214
2022-10-11T06:27:39.563Z,244
2022-10-11T06:33:00.030Z,308
2022-10-11T06:38:13.003Z,332
2022-10-11T06:43:29.323Z,363
2022-10-11T06:48:46.759Z,385
2022-10-11T06:54:04.192Z,435
2022-10-11T07:04:39.080Z,478
2022-10-11T07:09:55.082Z,467
2022-10-11T07:15:12.521Z,476
2022-10-11T07:20:29.992Z,441
2022-10-11T07:25:47.569Z,517
2022-10-11T07:31:03.755Z,511
2022-10-11T07:35:29.875Z,580
2022-10-11T07:39:57.197Z,581
2022-10-11T07:45:17.374Z,633
2022-10-11T07:50:34.126Z,667
2022-10-11T07:55:51.408Z,634
2022-10-11T08:00:20.124Z,668
2022-10-11T08:05:11.201Z,605
2022-10-11T08:10:20.314Z,677
2022-10-11T08:15:30.512Z,677
2022-10-11T08:20:39.221Z,679
2022-10-11T08:25:48.330Z,782
2022-10-11T08:30:58.075Z,849
2022-10-11T08:36:08.397Z,762
2022-10-11T08:41:15.684Z,810
2022-10-11T08:46:24.812Z,743
2022-10-11T08:51:33.907Z,794
2022-10-11T08:56:42.445Z,819
2022-10-11T09:01:51.732Z,822
2022-10-11T09:07:05.340Z,926
2022-10-11T09:12:18.521Z,986
2022-10-11T09:17:17.624Z,951
2022-10-11T09:22:31.007Z,854
2022-10-11T09:28:04.270Z,920
2022-10-11T09:32:46.247Z,1254
2022-10-11T09:37:55.381Z,1236
2022-10-11T09:43:09.959Z,1082
2022-10-11T09:48:26.553Z,1251
2022-10-11T09:53:43.657Z,1222
2022-10-11T09:59:02.442Z,882
2022-10-11T10:04:18.617Z,797
2022-10-11T10:09:34.657Z,724
2022-10-11T10:14:52.046Z,752
2022-10-11T10:20:07.563Z,766
2022-10-11T10:25:25.008Z,748
2022-10-11T10:30:42.601Z,1081
2022-10-11T10:35:58.763Z,1189
2022-10-11T10:41:16.585Z,1210
2022-10-11T10:46:32.920Z,1180
2022-10-11T10:56:17.878Z,1064
2022-10-11T11:01:33.946Z,1188
2022-10-11T11:05:34.264Z,1186
2022-10-11T11:11:16.842Z,1184
2022-10-11T11:16:39.260Z,1193
2022-10-11T11:19:42.886Z,869
2022-10-11T11:24:51.400Z,915
2022-10-11T11:30:01.123Z,1371
2022-10-11T11:35:10.912Z,1019
2022-10-11T11:40:20.011Z,1238
2022-10-11T11:45:29.103Z,883
2022-10-11T11:50:39.517Z,723
2022-10-11T11:55:48.000Z,554
2022-10-11T12:00:57.180Z,594
2022-10-11T12:06:06.239Z,716
2022-10-11T12:11:16.673Z,725
2022-10-11T12:16:25.751Z,477
2022-10-11T12:21:37.319Z,619
2022-10-11T12:26:53.405Z,392
2022-10-11T12:32:12.475Z,521
2022-10-11T12:37:26.478Z,612
2022-10-11T12:42:43.744Z,618
2022-10-11T12:48:01.162Z,744
2022-10-11T13:03:50.367Z,758
2022-10-11T13:09:07.080Z,698
2022-10-11T13:30:16.359Z,490
2022-10-11T13:35:33.800Z,430
2022-10-11T13:40:51.090Z,415
2022-10-11T13:46:07.618Z,407
2022-10-11T13:51:25.319Z,409
2022-10-11T13:56:42.124Z,392
2022-10-11T14:01:59.600Z,373
2022-10-11T14:07:19.591Z,346
2022-10-11T14:12:30.606Z,336
2022-10-11T14:17:46.134Z,319
2022-10-11T14:21:22.468Z,316
2022-10-11T14:25:25.921Z,303
2022-10-11T14:30:35.814Z,294
2022-10-11T14:35:46.076Z,281
2022-10-11T14:40:55.194Z,275
2022-10-11T14:46:05.560Z,273
2022-10-11T14:51:14.715Z,262
2022-10-11T14:56:23.881Z,243
2022-10-11T15:01:35.780Z,233
2022-10-11T15:06:44.007Z,221
2022-10-11T15:11:53.970Z,214
2022-10-11T15:17:02.911Z,209
2022-10-11T15:22:11.998Z,203
2022-10-11T15:27:22.426Z,197
2022-10-11T15:32:32.138Z,190
2022-10-11T15:37:41.282Z,182
2022-10-11T15:42:51.040Z,173
2022-10-11T15:47:59.518Z,164
2022-10-11T15:53:08.671Z,156
2022-10-11T15:58:18.399Z,149
2022-10-11T16:03:27.535Z,140
2022-10-11T16:08:36.641Z,144
2022-10-11T16:13:44.477Z,126
2022-10-11T16:18:52.952Z,104
2022-10-11T16:24:03.170Z,89
2022-10-11T16:29:19.252Z,92
2022-10-11T16:34:34.119Z,57
2022-10-11T16:39:49.688Z,43
2022-10-11T16:45:04.539Z,29
2022-10-11T16:50:20.089Z,18
2022-10-11T17:00:49.887Z,5
2022-10-11T17:11:19.599Z,0
2022-10-11T17:21:50.020Z,0
2022-10-11T17:32:21.656Z,0
2022-10-11T17:37:37.816Z,0
2022-10-11T17:42:52.695Z,0
2022-10-11T17:48:09.496Z,0
2022-10-11T17:53:25.025Z,0
2022-10-11T17:57:50.575Z,0
2022-10-11T18:02:17.581Z,0
2022-10-11T18:07:33.501Z,0
2022-10-11T18:12:49.667Z,0
2022-10-11T18:18:04.540Z,0
2022-10-11T18:23:20.059Z,0
2022-10-11T18:28:36.871Z,0
2022-10-11T18:33:51.741Z,0
2022-10-11T18:39:11.122Z,0
2022-10-11T18:43:36.608Z,0
2022-10-11T18:48:27.681Z,0
2022-10-11T18:53:37.470Z,0
2022-10-11T18:58:47.834Z,0
2022-10-11T19:03:58.875Z,0
2022-10-11T19:09:07.357Z,0
2022-10-11T19:14:16.536Z,0
2022-10-11T19:19:26.232Z,0
2022-10-11T19:24:36.024Z,0
2022-10-11T19:29:45.105Z,0
2022-10-11T19:34:54.874Z,0
2022-10-11T19:40:04.011Z,0
2022-10-11T19:45:13.114Z,0
2022-10-11T19:50:22.272Z,0
2022-10-11T19:55:31.356Z,0
2022-10-11T20:00:40.478Z,0
2022-10-11T20:05:48.988Z,0
2022-10-11T20:10:57.443Z,0
2022-10-11T20:16:05.921Z,0
2022-10-11T20:21:15.709Z,0
2022-10-11T20:26:24.799Z,0
2022-10-11T20:31:33.296Z,0
2022-10-11T20:36:49.663Z,0
2022-10-11T20:41:52.831Z,0
2022-10-11T20:47:04.555Z,0
2022-10-11T20:52:20.365Z,0
2022-10-11T20:57:36.524Z,0
2022-10-11T21:02:52.735Z,0
2022-10-11T21:08:08.688Z,0
2022-10-11T21:13:25.052Z,0
2022-10-11T21:18:40.998Z,0
2022-10-11T21:23:58.434Z,0
2022-10-11T21:29:15.885Z,0
2022-10-11T21:33:44.122Z,0
2022-10-11T21:38:36.955Z,0
2022-10-11T21:43:47.392Z,0
2022-10-11T21:48:57.771Z,0
2022-10-11T21:54:06.272Z,0
2022-10-11T21:59:15.994Z,0
2022-10-11T22:04:25.791Z,0
2022-10-11T22:09:35.529Z,0
2022-10-11T22:14:45.919Z,0
2022-10-11T22:19:56.314Z,0
2022-10-11T22:25:08.243Z,0
2022-10-11T22:30:23.735Z,0
2022-10-11T22:35:39.258Z,0
2022-10-11T22:40:55.453Z,0
2022-10-11T22:46:11.587Z,0
2022-10-11T22:51:27.096Z,0
2022-10-11T22:56:42.645Z,0
2022-10-11T23:01:58.138Z,0
2022-10-11T23:07:13.655Z,0
2022-10-11T23:12:29.855Z,0
2022-10-11T23:16:54.696Z,0
2022-10-11T23:21:45.116Z,0
2022-10-11T23:26:54.874Z,0
2022-10-11T23:32:03.367Z,0
2022-10-11T23:37:11.841Z,0
2022-10-11T23:42:20.315Z,0
2022-10-11T23:47:30.068Z,0
2022-10-11T23:52:39.189Z,0
2022-10-11T23:57:48.314Z,0
